Time;durP1;ratioP1;P1;durP2;ratioP2;P2;SDS_P1;SDS_P2;PMS_P1;PMS_P2;Temp;Humidity;BMP_temperature;BMP_pressure;BME280_temperature;BME280_humidity;BME280_pressure;Samples;Min_cycle;Max_cycle;Signal;HPM_P1;HPM_P2
2022/08/31 00:05:23;;;;;;;7.90;7.10;;;18.30;99.90;;;;;;5069996;28;20395;-76
2022/08/31 00:07:50;;;;;;;7.45;6.60;;;18.30;99.90;;;;;;5069863;28;20376;-76
2022/08/31 00:10:17;;;;;;;7.03;6.33;;;18.30;99.90;;;;;;5051879;28;20384;-76
2022/08/31 00:12:45;;;;;;;7.80;7.03;;;18.20;99.90;;;;;;5069644;28;20456;-75
2022/08/31 00:15:19;;;;;;;7.68;6.97;;;18.30;99.90;;;;;;5051997;28;20471;-76
2022/08/31 00:17:45;;;;;;;6.88;6.18;;;18.30;99.90;;;;;;5069752;28;20392;-76
2022/08/31 00:20:13;;;;;;;7.07;6.38;;;18.30;99.90;;;;;;5069906;28;20478;-76
2022/08/31 00:22:39;;;;;;;6.97;6.28;;;18.30;99.90;;;;;;5069597;28;20379;-75
2022/08/31 00:25:05;;;;;;;6.60;6.00;;;18.20;99.90;;;;;;5069903;28;20390;-75
2022/08/31 00:27:31;;;;;;;6.70;6.10;;;18.20;99.90;;;;;;5069709;28;20422;-75
2022/08/31 00:29:57;;;;;;;6.97;6.10;;;18.30;99.90;;;;;;5069698;28;20383;-75
2022/08/31 00:32:22;;;;;;;6.60;6.00;;;18.30;99.90;;;;;;5069743;28;20380;-75
2022/08/31 00:34:48;;;;;;;6.43;5.83;;;18.20;99.90;;;;;;5051762;28;20475;-75
2022/08/31 00:37:13;;;;;;;9.00;6.80;;;18.20;99.90;;;;;;5069564;28;20502;-75
2022/08/31 00:39:39;;;;;;;6.38;5.78;;;18.10;99.90;;;;;;5069610;28;20411;-75
2022/08/31 00:42:06;;;;;;;7.20;6.50;;;18.20;99.90;;;;;;5069628;28;20771;-75
2022/08/31 00:44:32;;;;;;;9.60;6.93;;;18.10;99.90;;;;;;5051263;28;20414;-75
2022/08/31 00:46:57;;;;;;;7.93;7.13;;;18.20;99.90;;;;;;5069489;28;20408;-75
2022/08/31 00:49:29;;;;;;;7.22;6.40;;;18.20;99.90;;;;;;5070214;28;20417;-75
2022/08/31 00:52:00;;;;;;;6.70;6.10;;;18.20;99.90;;;;;;5073684;28;20418;-75
2022/08/31 00:54:33;;;;;;;7.60;6.80;;;18.20;99.90;;;;;;5055332;28;20796;-75
2022/08/31 00:56:59;;;;;;;6.82;6.13;;;18.20;99.90;;;;;;5055240;28;20761;-75
2022/08/31 00:59:25;;;;;;;7.07;6.38;;;18.10;99.90;;;;;;5073419;28;20402;-75
2022/08/31 01:01:51;;;;;;;7.40;6.70;;;18.10;99.90;;;;;;5073323;28;20471;-75
2022/08/31 01:04:17;;;;;;;8.47;6.23;;;18.10;99.90;;;;;;5073139;28;20455;-75
2022/08/31 01:06:44;;;;;;;6.97;6.17;;;18.20;99.90;;;;;;5073293;28;20379;-75
2022/08/31 01:09:11;;;;;;;7.32;6.60;;;18.20;99.90;;;;;;5073203;28;20379;-75
2022/08/31 01:11:38;;;;;;;7.05;6.35;;;18.10;99.90;;;;;;5073137;28;20749;-75
2022/08/31 01:14:07;;;;;;;8.70;6.40;;;18.10;99.90;;;;;;5073405;28;20399;-75
2022/08/31 01:16:36;;;;;;;6.90;6.10;;;18.20;99.90;;;;;;5055392;28;20390;-75
2022/08/31 01:19:06;;;;;;;6.25;5.65;;;18.10;99.90;;;;;;5072948;28;20418;-75
2022/08/31 01:21:49;;;;;;;6.93;6.20;;;18.10;99.90;;;;;;5073099;28;20857;-75
2022/08/31 01:24:16;;;;;;;6.65;5.90;;;18.10;99.90;;;;;;5054739;28;20399;-75
2022/08/31 01:26:42;;;;;;;6.20;5.70;;;18.10;99.90;;;;;;5073005;28;20388;-75
2022/08/31 01:29:07;;;;;;;6.78;5.82;;;18.10;99.90;;;;;;5072897;28;20788;-75
2022/08/31 01:31:42;;;;;;;6.23;5.73;;;18.10;99.90;;;;;;5072921;28;20395;-75
2022/08/31 01:34:08;;;;;;;6.55;5.80;;;18.10;99.90;;;;;;5072577;28;20421;-75
2022/08/31 01:36:35;;;;;;;6.00;5.40;;;18.10;99.90;;;;;;5072715;28;20734;-74
2022/08/31 01:39:01;;;;;;;6.72;5.60;;;18.00;99.90;;;;;;5072551;28;20429;-75
2022/08/31 01:41:27;;;;;;;6.35;5.75;;;18.10;99.90;;;;;;5054827;28;20380;-75
2022/08/31 01:43:53;;;;;;;6.97;6.13;;;18.10;99.90;;;;;;5072358;28;20378;-75
2022/08/31 01:46:19;;;;;;;6.47;5.88;;;18.10;99.90;;;;;;5054676;28;20466;-75
2022/08/31 01:48:45;;;;;;;6.60;6.00;;;18.00;99.90;;;;;;5072421;28;20383;-75
2022/08/31 01:51:13;;;;;;;7.22;6.20;;;18.00;99.90;;;;;;5054503;28;20392;-75
2022/08/31 01:53:40;;;;;;;6.32;5.72;;;18.00;99.90;;;;;;5072211;28;20397;-75
2022/08/31 01:56:14;;;;;;;6.20;5.60;;;18.00;99.90;;;;;;5072504;28;20692;-75
2022/08/31 01:58:40;;;;;;;6.63;6.03;;;18.10;99.90;;;;;;5072046;28;20449;-75
2022/08/31 02:01:06;;;;;;;6.40;5.80;;;18.00;99.90;;;;;;5072007;28;20376;-75
2022/08/31 02:03:31;;;;;;;6.50;5.90;;;18.00;99.90;;;;;;5072039;28;20818;-75
2022/08/31 02:05:57;;;;;;;7.80;5.70;;;18.00;99.90;;;;;;5054363;28;20399;-75
2022/08/31 02:08:22;;;;;;;6.60;6.00;;;18.00;99.90;;;;;;5072332;28;20872;-75
2022/08/31 02:10:48;;;;;;;6.47;5.88;;;18.00;99.90;;;;;;5072230;28;20388;-75
2022/08/31 02:13:14;;;;;;;6.37;5.77;;;18.00;99.90;;;;;;5071795;28;20380;-75
2022/08/31 02:15:39;;;;;;;6.60;6.00;;;18.00;99.90;;;;;;5072107;28;20873;-75
2022/08/31 02:18:05;;;;;;;7.03;6.43;;;18.00;99.90;;;;;;5071916;28;20467;-75
2022/08/31 02:20:31;;;;;;;6.90;6.20;;;18.00;99.90;;;;;;5053811;28;20413;-75
2022/08/31 02:22:57;;;;;;;6.45;5.72;;;17.90;99.90;;;;;;5053733;28;20376;-75
2022/08/31 02:25:23;;;;;;;6.88;6.18;;;18.00;99.90;;;;;;5071924;28;20433;-74
2022/08/31 02:27:48;;;;;;;6.85;6.25;;;18.00;99.90;;;;;;5071779;28;20784;-75
2022/08/31 02:30:16;;;;;;;7.63;6.17;;;18.00;99.90;;;;;;5071862;28;20386;-75
2022/08/31 02:32:42;;;;;;;6.20;5.60;;;18.00;99.90;;;;;;5071434;28;20445;-75
2022/08/31 02:35:08;;;;;;;5.90;5.40;;;18.00;99.90;;;;;;5071716;28;20380;-75
2022/08/31 02:37:34;;;;;;;6.75;6.13;;;17.90;99.90;;;;;;5053654;28;20828;-75
2022/08/31 02:39:59;;;;;;;6.55;5.95;;;18.00;99.90;;;;;;5071631;28;20487;-74
2022/08/31 02:42:25;;;;;;;6.80;5.80;;;17.90;99.90;;;;;;5071733;28;20472;-74
2022/08/31 02:44:50;;;;;;;6.28;5.68;;;17.80;99.90;;;;;;5071474;28;20410;-75
2022/08/31 02:47:16;;;;;;;7.30;6.70;;;17.90;99.90;;;;;;5071380;28;20384;-75
2022/08/31 02:49:42;;;;;;;6.68;6.07;;;17.80;99.90;;;;;;5071392;28;20474;-75
2022/08/31 02:52:07;;;;;;;6.70;6.10;;;17.90;99.90;;;;;;5071359;28;20866;-75
2022/08/31 02:54:33;;;;;;;6.00;5.40;;;17.90;99.90;;;;;;5071102;28;20402;-75
2022/08/31 02:56:59;;;;;;;6.85;5.90;;;17.80;99.90;;;;;;5056564;28;20538;-75
2022/08/31 02:59:24;;;;;;;6.45;5.85;;;17.90;99.90;;;;;;5055542;28;20408;-75
2022/08/31 03:01:51;;;;;;;7.90;5.53;;;18.00;99.90;;;;;;5045513;28;20447;-75
2022/08/31 03:04:17;;;;;;;6.30;5.70;;;17.90;99.90;;;;;;5060691;28;20942;-75
2022/08/31 03:06:42;;;;;;;5.47;5.00;;;18.00;99.90;;;;;;5071290;28;20406;-75
2022/08/31 03:09:08;;;;;;;6.40;5.80;;;17.90;99.90;;;;;;5071123;28;20379;-74
2022/08/31 03:11:34;;;;;;;6.22;5.50;;;17.80;99.90;;;;;;5070560;28;20488;-75
2022/08/31 03:13:59;;;;;;;5.70;5.20;;;17.90;99.90;;;;;;5070476;28;20425;-75
2022/08/31 03:16:25;;;;;;;6.10;5.57;;;17.90;99.90;;;;;;5070791;28;20388;-75
2022/08/31 03:18:51;;;;;;;5.90;5.30;;;17.90;99.90;;;;;;5070651;28;20450;-74
2022/08/31 03:21:16;;;;;;;5.40;4.90;;;17.80;99.90;;;;;;5070888;28;20392;-75
2022/08/31 03:23:42;;;;;;;6.07;4.80;;;17.80;99.90;;;;;;5070470;28;20437;-75
2022/08/31 03:26:08;;;;;;;6.10;5.50;;;17.80;99.90;;;;;;5070726;28;20375;-74
2022/08/31 03:28:36;;;;;;;5.45;5.05;;;17.70;99.90;;;;;;5052636;28;20866;-75
2022/08/31 03:31:01;;;;;;;6.00;5.50;;;17.90;99.90;;;;;;5070678;28;20397;-75
2022/08/31 03:33:27;;;;;;;5.85;5.35;;;17.80;99.90;;;;;;5070794;28;20456;-74
2022/08/31 03:35:53;;;;;;;5.70;5.20;;;17.80;99.90;;;;;;5071117;28;20468;-75
2022/08/31 03:38:19;;;;;;;5.80;5.20;;;17.80;99.90;;;;;;5070893;28;20399;-74
2022/08/31 03:40:45;;;;;;;5.75;5.13;;;17.80;99.90;;;;;;5071005;28;20506;-75
2022/08/31 03:43:12;;;;;;;6.00;5.50;;;17.80;99.90;;;;;;5070611;28;20390;-75
2022/08/31 03:45:41;;;;;;;5.83;4.93;;;17.70;99.90;;;;;;5070771;28;20802;-74
2022/08/31 03:48:09;;;;;;;5.55;5.15;;;17.80;99.90;;;;;;5070816;28;21026;-74
2022/08/31 03:50:35;;;;;;;5.65;5.15;;;17.80;99.90;;;;;;5070799;28;20391;-74
2022/08/31 03:53:03;;;;;;;5.60;5.10;;;17.70;99.90;;;;;;5070506;28;20776;-74
2022/08/31 03:55:29;;;;;;;5.32;4.82;;;17.80;99.90;;;;;;5070659;28;20379;-74
2022/08/31 03:57:55;;;;;;;6.03;5.53;;;17.70;99.90;;;;;;5070582;28;20394;-74
2022/08/31 04:00:22;;;;;;;6.00;5.50;;;17.80;99.90;;;;;;5070488;28;20482;-74
2022/08/31 04:02:47;;;;;;;5.90;5.40;;;17.70;99.90;;;;;;5070346;28;20801;-74
2022/08/31 04:05:13;;;;;;;5.70;5.10;;;17.70;99.90;;;;;;5070549;28;20376;-75
2022/08/31 04:07:39;;;;;;;5.10;4.60;;;17.80;99.90;;;;;;5070539;28;20380;-75
2022/08/31 04:10:06;;;;;;;5.10;4.70;;;17.80;99.90;;;;;;5070490;28;20390;-75
2022/08/31 04:12:31;;;;;;;5.73;4.50;;;17.70;99.90;;;;;;5070198;28;20383;-75
2022/08/31 04:14:57;;;;;;;4.60;4.20;;;17.60;99.90;;;;;;5052295;28;20737;-75
2022/08/31 04:17:23;;;;;;;5.27;4.40;;;17.50;99.90;;;;;;5070325;28;20474;-75
2022/08/31 04:19:48;;;;;;;4.45;4.05;;;17.60;99.90;;;;;;5070350;28;20408;-75
2022/08/31 04:22:14;;;;;;;5.57;4.50;;;17.70;99.90;;;;;;5070345;28;20754;-75
2022/08/31 04:24:39;;;;;;;4.80;4.40;;;17.70;99.90;;;;;;5069898;28;20525;-76
2022/08/31 04:27:05;;;;;;;4.83;4.33;;;17.60;99.90;;;;;;5070313;28;20406;-76
2022/08/31 04:29:30;;;;;;;4.20;3.80;;;17.60;99.90;;;;;;5070289;28;20420;-76
2022/08/31 04:31:56;;;;;;;4.63;4.22;;;17.50;99.90;;;;;;5052415;28;20445;-76
2022/08/31 04:34:22;;;;;;;4.32;3.92;;;17.50;99.90;;;;;;5070145;28;20384;-76
2022/08/31 04:36:47;;;;;;;4.23;3.83;;;17.50;99.90;;;;;;5070176;28;20387;-75
2022/08/31 04:39:13;;;;;;;4.10;3.70;;;17.50;99.90;;;;;;5070187;28;20444;-75
2022/08/31 04:41:40;;;;;;;3.80;3.50;;;17.30;99.90;;;;;;5070225;28;20441;-75
2022/08/31 04:44:06;;;;;;;4.57;3.75;;;17.30;99.90;;;;;;5069861;28;20418;-75
2022/08/31 04:46:34;;;;;;;3.97;3.67;;;17.30;99.90;;;;;;5070063;28;20388;-75
2022/08/31 04:49:00;;;;;;;3.80;3.40;;;17.50;99.90;;;;;;5070150;28;20390;-75
2022/08/31 04:51:35;;;;;;;4.27;3.87;;;17.50;99.90;;;;;;5070128;28;20474;-75
2022/08/31 04:54:03;;;;;;;3.55;3.25;;;17.50;99.90;;;;;;5069822;28;20384;-76
2022/08/31 04:56:32;;;;;;;4.03;3.53;;;17.60;99.90;;;;;;5069894;28;20450;-76
2022/08/31 04:59:03;;;;;;;5.30;3.60;;;17.60;99.90;;;;;;5069939;28;20388;-76
2022/08/31 05:01:32;;;;;;;4.15;3.70;;;17.50;99.90;;;;;;5070033;28;20380;-75
2022/08/31 05:03:58;;;;;;;3.60;3.30;;;17.60;99.90;;;;;;5069745;28;20842;-75
2022/08/31 05:06:29;;;;;;;3.63;3.33;;;17.60;99.90;;;;;;5069987;28;20391;-75
2022/08/31 05:09:01;;;;;;;4.50;4.10;;;17.60;99.90;;;;;;5069810;28;20387;-76
2022/08/31 05:11:27;;;;;;;3.75;3.45;;;17.60;99.90;;;;;;5069974;28;20393;-75
2022/08/31 05:13:56;;;;;;;3.50;3.20;;;17.60;99.90;;;;;;5069586;28;20380;-75
2022/08/31 05:16:22;;;;;;;3.47;3.17;;;17.60;99.90;;;;;;5071165;28;20384;-75
2022/08/31 05:18:49;;;;;;;3.80;3.20;;;17.50;99.90;;;;;;5069804;28;20768;-75
2022/08/31 05:21:25;;;;;;;3.47;3.17;;;17.40;99.90;;;;;;5070010;28;20380;-75
2022/08/31 05:23:51;;;;;;;4.05;3.13;;;17.40;99.90;;;;;;5069609;28;20376;-75
2022/08/31 05:26:19;;;;;;;3.40;3.10;;;17.40;99.90;;;;;;5069916;28;20372;-76
2022/08/31 05:28:46;;;;;;;4.90;3.30;;;17.50;99.90;;;;;;5051885;28;20452;-75
2022/08/31 05:31:11;;;;;;;3.70;3.40;;;17.50;99.90;;;;;;5069846;28;20388;-75
2022/08/31 05:33:37;;;;;;;3.13;2.83;;;17.50;99.90;;;;;;5069522;28;20383;-75
2022/08/31 05:36:03;;;;;;;5.20;3.47;;;17.50;99.90;;;;;;5071359;28;20903;-75
2022/08/31 05:38:29;;;;;;;3.60;3.00;;;17.60;99.90;;;;;;5055352;28;20384;-75
2022/08/31 05:40:57;;;;;;;3.90;3.00;;;17.60;99.90;;;;;;5073293;28;20397;-75
2022/08/31 05:43:23;;;;;;;4.43;3.05;;;17.50;99.90;;;;;;5073115;28;20475;-74
2022/08/31 05:45:49;;;;;;;3.72;3.10;;;17.50;99.90;;;;;;5073332;28;20375;-76
2022/08/31 05:48:15;;;;;;;3.37;3.00;;;17.50;99.90;;;;;;5053494;28;20405;-74
2022/08/31 05:50:41;;;;;;;3.53;3.22;;;17.50;99.90;;;;;;5061082;28;20393;-74
2022/08/31 05:53:07;;;;;;;5.40;3.30;;;17.50;99.90;;;;;;5051738;28;20948;-73
2022/08/31 05:55:32;;;;;;;3.20;3.00;;;17.50;99.90;;;;;;5043685;28;20796;-73
2022/08/31 05:57:58;;;;;;;3.72;3.40;;;17.40;99.90;;;;;;5057948;28;20403;-73
2022/08/31 06:00:24;;;;;;;3.70;3.10;;;17.40;99.90;;;;;;5057916;28;20424;-74
2022/08/31 06:02:50;;;;;;;2.85;2.65;;;17.30;99.90;;;;;;5054715;28;20398;-74
2022/08/31 06:05:16;;;;;;;3.50;3.20;;;17.30;99.90;;;;;;5055765;28;20407;-74
2022/08/31 06:07:42;;;;;;;3.60;3.30;;;17.40;99.90;;;;;;5055389;28;20957;-75
2022/08/31 06:10:08;;;;;;;3.40;3.10;;;17.50;99.90;;;;;;5054572;28;20413;-75
2022/08/31 06:12:36;;;;;;;4.03;3.10;;;17.30;99.90;;;;;;5045731;28;20816;-76
2022/08/31 06:15:03;;;;;;;3.90;3.00;;;17.30;99.90;;;;;;5059040;28;20486;-76
2022/08/31 06:17:33;;;;;;;3.40;3.10;;;17.40;99.90;;;;;;5036289;28;20777;-76
2022/08/31 06:19:59;;;;;;;3.20;2.90;;;17.40;99.90;;;;;;5054681;28;20500;-75
2022/08/31 06:22:25;;;;;;;3.50;3.20;;;17.40;99.90;;;;;;5050598;28;20423;-75
2022/08/31 06:24:50;;;;;;;3.50;3.20;;;17.40;99.90;;;;;;5060447;28;20431;-76
2022/08/31 06:27:17;;;;;;;4.90;3.03;;;17.40;99.90;;;;;;5058403;28;20456;-75
2022/08/31 06:29:42;;;;;;;3.20;2.90;;;17.40;99.90;;;;;;5047165;28;20522;-75
2022/08/31 06:32:09;;;;;;;3.38;3.00;;;17.40;99.90;;;;;;5053500;28;20889;-73
2022/08/31 06:34:36;;;;;;;3.00;2.80;;;17.40;99.90;;;;;;5040691;28;20405;-74
2022/08/31 06:37:03;;;;;;;3.35;3.05;;;17.40;99.90;;;;;;5042554;28;20433;-74
2022/08/31 06:39:29;;;;;;;3.00;2.80;;;17.50;99.90;;;;;;5071959;28;20408;-73
2022/08/31 06:41:54;;;;;;;3.30;3.00;;;17.50;99.90;;;;;;5054317;28;20886;-73
2022/08/31 06:44:23;;;;;;;3.20;3.00;;;17.40;99.90;;;;;;5071822;28;20430;-74
2022/08/31 06:46:50;;;;;;;3.30;3.00;;;17.30;99.90;;;;;;5070951;28;20392;-74
2022/08/31 06:49:16;;;;;;;4.00;3.20;;;17.30;99.90;;;;;;5046807;28;20422;-75
2022/08/31 06:51:42;;;;;;;3.30;2.83;;;17.20;99.90;;;;;;5051551;28;20389;-74
2022/08/31 06:54:10;;;;;;;3.53;3.23;;;17.20;99.90;;;;;;5060328;28;20391;-74
2022/08/31 06:56:36;;;;;;;3.35;2.90;;;17.30;99.90;;;;;;5064257;28;20426;-74
2022/08/31 06:59:02;;;;;;;3.38;3.08;;;17.20;99.90;;;;;;5063738;28;20451;-74
2022/08/31 07:01:29;;;;;;;3.03;2.72;;;17.30;99.90;;;;;;5045462;28;20460;-75
2022/08/31 07:03:56;;;;;;;3.28;2.13;;;17.30;99.90;;;;;;5058765;28;20385;-74
2022/08/31 07:06:25;;;;;;;3.00;2.50;;;17.20;99.90;;;;;;5070426;28;20371;-74
2022/08/31 07:08:53;;;;;;;4.38;2.80;;;17.00;99.90;;;;;;5071505;28;20458;-74
2022/08/31 07:11:25;;;;;;;2.95;2.75;;;17.10;99.90;;;;;;5053769;28;20475;-74
2022/08/31 07:13:53;;;;;;;2.83;2.63;;;17.20;99.90;;;;;;5048518;28;20409;-74
2022/08/31 07:16:20;;;;;;;3.50;2.95;;;17.20;99.90;;;;;;5037018;28;20416;-77
2022/08/31 07:18:48;;;;;;;3.40;3.00;;;17.20;99.90;;;;;;5022962;28;20511;-76
2022/08/31 07:21:20;;;;;;;3.88;3.10;;;17.20;99.90;;;;;;5033511;28;20410;-75
2022/08/31 07:23:47;;;;;;;2.90;2.70;;;17.20;99.90;;;;;;5041242;28;20389;-77
2022/08/31 07:26:16;;;;;;;3.40;2.95;;;17.20;99.90;;;;;;5024923;28;20381;-77
2022/08/31 07:28:42;;;;;;;3.30;3.00;;;17.30;99.90;;;;;;5043351;28;20480;-76
2022/08/31 07:31:09;;;;;;;3.40;3.10;;;17.40;99.90;;;;;;5052610;28;20490;-77
2022/08/31 07:33:38;;;;;;;3.08;2.70;;;17.40;99.90;;;;;;5046049;28;20396;-76
2022/08/31 07:36:10;;;;;;;3.70;3.30;;;17.30;99.90;;;;;;5037330;28;20420;-77
2022/08/31 07:44:05;;;;;;;5.80;2.60;;;17.50;99.90;;;;;;5045745;28;20426;-74
2022/08/31 07:46:31;;;;;;;2.90;2.65;;;17.50;99.90;;;;;;5040264;28;20369;-73
2022/08/31 07:48:58;;;;;;;2.40;2.20;;;17.40;99.90;;;;;;5028233;28;20454;-74
2022/08/31 07:51:24;;;;;;;3.20;2.90;;;17.20;99.90;;;;;;5048185;28;20804;-75
2022/08/31 07:53:50;;;;;;;3.40;3.10;;;17.40;99.90;;;;;;5035075;28;20592;-75
2022/08/31 07:56:17;;;;;;;5.25;4.13;;;17.60;99.90;;;;;;5038904;28;20408;-75
2022/08/31 07:58:44;;;;;;;3.30;3.00;;;17.80;99.90;;;;;;5038941;28;20401;-75
2022/08/31 08:01:10;;;;;;;3.20;2.50;;;18.00;99.90;;;;;;5038367;28;20445;-75
2022/08/31 08:03:42;;;;;;;2.60;2.40;;;17.80;99.90;;;;;;5022076;28;20464;-75
2022/08/31 08:06:14;;;;;;;3.15;2.92;;;17.80;99.90;;;;;;5031642;28;20438;-76
2022/08/31 08:08:41;;;;;;;3.30;3.00;;;17.90;99.90;;;;;;5025683;28;20405;-75
2022/08/31 08:11:07;;;;;;;3.80;3.10;;;17.90;99.90;;;;;;5020962;28;20420;-76
2022/08/31 08:13:34;;;;;;;3.45;3.15;;;18.10;99.90;;;;;;5050160;28;20443;-75
2022/08/31 08:15:59;;;;;;;3.22;2.65;;;18.10;99.90;;;;;;5054016;28;20389;-75
2022/08/31 08:18:25;;;;;;;3.50;2.70;;;18.20;99.90;;;;;;5060430;28;20428;-76
2022/08/31 08:20:51;;;;;;;4.00;3.00;;;18.20;99.90;;;;;;5064217;28;20395;-75
2022/08/31 08:23:18;;;;;;;3.10;2.60;;;18.30;99.90;;;;;;5040737;28;20403;-76
2022/08/31 08:25:45;;;;;;;3.20;2.90;;;18.40;99.90;;;;;;5030256;28;20479;-74
2022/08/31 08:28:16;;;;;;;3.00;2.80;;;18.40;99.90;;;;;;5059273;28;20385;-74
2022/08/31 08:30:43;;;;;;;3.45;2.75;;;18.40;99.90;;;;;;5070560;28;20387;-74
2022/08/31 08:33:09;;;;;;;2.60;2.40;;;18.50;99.90;;;;;;5070238;28;20762;-74
2022/08/31 08:35:34;;;;;;;3.63;2.72;;;18.50;99.90;;;;;;5070542;28;20382;-74
2022/08/31 08:38:01;;;;;;;2.80;2.30;;;18.60;99.90;;;;;;5070313;28;20408;-74
2022/08/31 08:40:43;;;;;;;2.30;2.10;;;18.60;99.90;;;;;;5070296;28;20776;-74
2022/08/31 08:43:15;;;;;;;2.80;2.60;;;18.70;99.90;;;;;;5052192;28;20387;-74
2022/08/31 08:45:42;;;;;;;3.17;2.78;;;18.80;99.90;;;;;;5070398;28;20415;-74
2022/08/31 08:48:12;;;;;;;3.13;2.83;;;18.80;99.90;;;;;;5070202;28;20380;-74
2022/08/31 08:50:40;;;;;;;2.90;2.70;;;18.70;99.90;;;;;;5070368;28;20433;-75
2022/08/31 08:53:09;;;;;;;2.85;2.65;;;18.80;99.90;;;;;;5069991;28;20380;-74
2022/08/31 08:55:41;;;;;;;2.50;2.30;;;18.90;99.90;;;;;;5070311;28;20379;-74
2022/08/31 08:58:09;;;;;;;2.90;2.70;;;18.90;99.90;;;;;;5070127;28;20384;-75
2022/08/31 09:00:37;;;;;;;2.80;2.60;;;18.90;99.90;;;;;;5070757;28;20403;-74
2022/08/31 09:03:05;;;;;;;3.33;2.80;;;19.00;99.90;;;;;;5052348;28;20383;-74
2022/08/31 09:05:43;;;;;;;3.00;2.60;;;18.90;99.90;;;;;;5052225;28;20753;-74
2022/08/31 09:08:33;;;;;;;2.50;2.30;;;19.00;99.90;;;;;;5052120;28;20439;-76
2022/08/31 09:11:17;;;;;;;3.05;2.58;;;19.10;99.90;;;;;;5061299;28;20501;-76
2022/08/31 09:13:54;;;;;;;4.87;2.90;;;18.90;99.90;;;;;;5031321;28;20410;-76
2022/08/31 09:16:24;;;;;;;2.92;2.72;;;18.70;99.90;;;;;;5065602;28;20410;-76
2022/08/31 09:19:03;;;;;;;2.80;2.60;;;18.80;99.90;;;;;;5055903;28;20837;-76
2022/08/31 09:21:44;;;;;;;2.60;2.40;;;18.90;99.90;;;;;;5072626;28;20467;-76
2022/08/31 09:24:14;;;;;;;2.58;2.38;;;19.10;99.90;;;;;;5054469;28;20452;-77
2022/08/31 09:27:16;;;;;;;3.00;2.80;;;19.20;99.90;;;;;;5049078;28;20771;-76
2022/08/31 09:29:53;;;;;;;2.50;2.30;;;19.10;99.90;;;;;;5051987;28;20393;-76
2022/08/31 09:32:31;;;;;;;2.97;2.78;;;19.20;99.90;;;;;;5046308;28;20422;-76
2022/08/31 09:35:07;;;;;;;3.00;2.80;;;19.30;99.90;;;;;;5035766;28;20440;-77
2022/08/31 09:37:43;;;;;;;3.08;2.60;;;19.20;99.90;;;;;;5044271;28;20384;-76
2022/08/31 09:40:22;;;;;;;2.83;2.63;;;19.50;99.90;;;;;;5057761;28;20412;-77
2022/08/31 09:43:05;;;;;;;2.92;2.40;;;19.60;99.90;;;;;;5057488;28;20407;-77
2022/08/31 09:45:34;;;;;;;4.30;3.30;;;19.70;99.90;;;;;;5055826;28;20391;-76
2022/08/31 09:48:00;;;;;;;3.10;2.80;;;19.50;99.90;;;;;;5051883;28;20382;-76
2022/08/31 09:50:39;;;;;;;2.73;2.53;;;19.40;99.90;;;;;;5053234;28;20400;-77
2022/08/31 09:56:20;;;;;;;2.97;2.50;;;19.60;99.90;;;;;;5062437;28;20467;-77
2022/08/31 09:58:49;;;;;;;2.83;2.63;;;19.70;99.90;;;;;;5046040;28;20887;-76
2022/08/31 10:01:43;;;;;;;3.00;2.80;;;19.80;99.90;;;;;;5064908;28;20407;-77
2022/08/31 10:04:28;;;;;;;3.30;3.00;;;19.70;99.90;;;;;;5033996;28;20464;-76
2022/08/31 10:07:18;;;;;;;2.50;2.30;;;19.90;99.90;;;;;;5024663;28;20407;-77
2022/08/31 10:09:47;;;;;;;2.53;2.33;;;20.20;99.90;;;;;;5034027;28;20888;-76
2022/08/31 10:12:31;;;;;;;2.67;2.47;;;20.00;99.90;;;;;;5049351;28;20411;-76
2022/08/31 10:15:02;;;;;;;2.85;2.65;;;20.30;99.90;;;;;;5042851;28;20401;-77
2022/08/31 10:17:36;;;;;;;2.72;2.30;;;20.20;99.90;;;;;;5064218;28;20425;-76
2022/08/31 10:20:14;;;;;;;2.88;2.53;;;20.60;99.90;;;;;;5044519;28;20424;-76
2022/08/31 10:22:45;;;;;;;3.35;2.33;;;20.60;99.90;;;;;;5051573;28;20959;-76
2022/08/31 10:25:35;;;;;;;2.70;2.50;;;20.90;99.90;;;;;;5049136;28;20904;-76
2022/08/31 10:28:23;;;;;;;2.50;2.30;;;21.10;99.90;;;;;;5036595;28;20400;-76
2022/08/31 10:30:58;;;;;;;2.60;2.40;;;21.20;99.90;;;;;;5032704;28;20486;-76
2022/08/31 10:35:01;;;;;;;2.47;2.28;;;21.20;99.90;;;;;;5063764;28;20437;-76
2022/08/31 10:36:15;;;;;;;2.65;2.10;;;21.50;99.90;;;;;;5072126;28;20396;-76
2022/08/31 10:38:46;;;;;;;2.58;2.38;;;21.20;99.90;;;;;;5072233;28;20421;-76
2022/08/31 10:41:35;;;;;;;2.78;2.20;;;21.10;99.90;;;;;;5072259;28;20811;-76
2022/08/31 10:44:16;;;;;;;2.28;2.08;;;21.30;99.90;;;;;;5056130;28;20416;-74
2022/08/31 10:46:43;;;;;;;2.40;2.20;;;21.40;99.90;;;;;;5037622;28;20783;-74
2022/08/31 10:49:10;;;;;;;2.05;1.92;;;21.30;99.90;;;;;;5040701;28;20485;-74
2022/08/31 10:51:55;;;;;;;2.47;2.10;;;21.30;99.90;;;;;;5041034;28;20421;-74
2022/08/31 10:55:04;;;;;;;2.20;2.00;;;21.40;99.90;;;;;;5046981;28;20795;-74
2022/08/31 10:57:53;;;;;;;2.30;2.10;;;21.50;99.90;;;;;;5044992;28;20829;-74
2022/08/31 11:00:44;;;;;;;2.50;2.30;;;21.60;99.90;;;;;;5049389;28;20422;-74
2022/08/31 11:03:44;;;;;;;2.60;2.20;;;21.60;99.90;;;;;;5052074;28;20471;-74
2022/08/31 11:06:19;;;;;;;3.70;2.38;;;22.00;99.90;;;;;;5051138;28;20401;-73
2022/08/31 11:09:03;;;;;;;2.30;2.10;;;22.10;99.90;;;;;;5047881;28;20386;-74
2022/08/31 11:11:34;;;;;;;2.33;2.13;;;22.30;99.90;;;;;;5034254;28;20877;-73
2022/08/31 11:14:32;;;;;;;2.38;2.17;;;22.40;99.90;;;;;;5057411;28;20395;-74
2022/08/31 11:17:07;;;;;;;2.28;1.90;;;22.50;99.90;;;;;;5044272;28;20490;-74
2022/08/31 11:19:49;;;;;;;2.17;2.00;;;22.40;99.90;;;;;;5027783;28;20416;-74
2022/08/31 11:22:45;;;;;;;2.50;2.30;;;22.50;99.90;;;;;;5047291;28;20781;-74
2022/08/31 11:25:23;;;;;;;4.07;2.40;;;22.60;99.90;;;;;;5037385;28;20488;-74
2022/08/31 11:28:01;;;;;;;2.75;2.35;;;22.90;99.90;;;;;;5058425;28;20414;-74
2022/08/31 11:30:30;;;;;;;2.97;2.30;;;23.40;99.90;;;;;;5039316;28;20428;-74
2022/08/31 11:32:59;;;;;;;2.78;2.30;;;23.70;99.90;;;;;;5047627;28;20399;-74
2022/08/31 11:35:56;;;;;;;3.10;2.80;;;23.90;99.90;;;;;;5041891;28;20410;-74
2022/08/31 11:38:53;;;;;;;2.80;2.50;;;24.40;99.90;;;;;;5040189;28;20413;-74
2022/08/31 11:41:45;;;;;;;3.25;2.80;;;24.60;99.90;;;;;;5051795;28;20459;-74
2022/08/31 11:44:30;;;;;;;3.95;3.25;;;24.50;99.90;;;;;;5051568;28;20395;-74
2022/08/31 11:47:27;;;;;;;2.90;2.70;;;24.70;99.90;;;;;;5028664;28;20402;-74
2022/08/31 11:49:55;;;;;;;2.75;2.55;;;25.40;99.90;;;;;;5053903;28;20455;-74
2022/08/31 11:52:23;;;;;;;3.40;2.90;;;24.80;99.90;;;;;;5042713;28;20410;-74
2022/08/31 11:54:49;;;;;;;3.13;2.92;;;24.40;99.90;;;;;;5050143;28;20769;-74
2022/08/31 11:57:19;;;;;;;3.88;3.58;;;24.40;99.90;;;;;;5055681;28;20773;-74
2022/08/31 11:59:49;;;;;;;3.40;3.10;;;23.50;99.90;;;;;;5060325;28;20909;-73
2022/08/31 12:02:21;;;;;;;3.60;3.30;;;23.30;99.90;;;;;;5036990;28;20383;-73
2022/08/31 12:04:59;;;;;;;3.17;2.88;;;23.00;99.90;;;;;;5049497;28;20384;-73
2022/08/31 12:07:29;;;;;;;3.00;2.80;;;24.00;99.90;;;;;;5038680;28;20411;-73
2022/08/31 12:09:54;;;;;;;3.20;2.90;;;24.40;99.90;;;;;;5034929;28;20397;-73
2022/08/31 12:12:48;;;;;;;3.10;2.90;;;24.80;99.90;;;;;;5030483;28;20389;-73
2022/08/31 12:15:22;;;;;;;3.53;3.13;;;25.00;99.90;;;;;;5029584;28;20759;-73
2022/08/31 12:18:18;;;;;;;3.13;2.92;;;25.30;99.90;;;;;;5031706;28;20413;-73
2022/08/31 12:23:56;;;;;;;4.00;3.70;;;23.70;99.90;;;;;;5040307;28;20374;-73
2022/08/31 12:26:43;;;;;;;3.40;3.10;;;23.70;99.90;;;;;;5039256;28;20385;-73
2022/08/31 12:29:27;;;;;;;3.70;3.40;;;23.20;99.90;;;;;;5040037;28;20399;-73
2022/08/31 12:32:01;;;;;;;3.50;3.20;;;22.70;99.90;;;;;;5023534;28;20482;-73
2022/08/31 12:34:28;;;;;;;4.00;3.70;;;22.70;99.90;;;;;;5038232;28;20911;-73
2022/08/31 12:36:54;;;;;;;3.65;3.35;;;22.50;99.90;;;;;;5040543;28;20390;-73
2022/08/31 12:39:26;;;;;;;3.60;3.37;;;22.50;99.90;;;;;;5036185;28;20394;-73
2022/08/31 12:42:01;;;;;;;3.80;3.50;;;22.40;99.90;;;;;;5037187;28;20405;-74
2022/08/31 12:44:32;;;;;;;3.90;3.50;;;22.30;99.90;;;;;;5044355;28;20573;-75
2022/08/31 12:47:25;;;;;;;3.92;3.60;;;22.20;99.90;;;;;;5044636;28;20501;-73
2022/08/31 12:49:59;;;;;;;3.88;3.58;;;22.20;99.90;;;;;;5044086;28;20409;-73
2022/08/31 12:52:43;;;;;;;3.90;3.50;;;22.10;99.90;;;;;;5046651;28;20423;-73
2022/08/31 12:55:08;;;;;;;3.90;3.60;;;22.30;99.90;;;;;;5042978;28;20917;-74
2022/08/31 12:57:37;;;;;;;3.80;3.50;;;22.30;99.90;;;;;;5044084;28;20415;-74
2022/08/31 13:00:18;;;;;;;4.28;3.88;;;22.50;99.90;;;;;;5066108;28;20403;-74
2022/08/31 13:02:47;;;;;;;4.05;3.75;;;22.50;99.90;;;;;;5060505;28;20401;-74
2022/08/31 13:05:27;;;;;;;3.90;3.60;;;22.70;99.90;;;;;;5058852;28;20758;-75
2022/08/31 13:07:54;;;;;;;3.80;3.50;;;22.80;99.90;;;;;;5068595;28;20391;-75
2022/08/31 13:10:33;;;;;;;4.20;3.80;;;22.70;99.90;;;;;;5055823;28;20474;-75
2022/08/31 13:13:06;;;;;;;3.90;3.58;;;22.80;99.90;;;;;;5035797;28;20417;-75
2022/08/31 13:15:33;;;;;;;3.90;3.50;;;23.10;99.90;;;;;;5036101;28;20813;-75
2022/08/31 13:18:01;;;;;;;3.75;3.45;;;23.30;99.90;;;;;;5053524;28;20488;-75
2022/08/31 13:20:34;;;;;;;3.40;3.10;;;23.30;99.90;;;;;;5053644;28;20401;-74